sensor_id;sensor_type;location;lat;lon;timestamp;P1;durP1;ratioP1;P2;durP2;ratioP2
48767;SDS011;34933;40.968;14.538;2022-09-13T00:00:06;2.55;;;1.83;;
48767;SDS011;34933;40.968;14.538;2022-09-13T00:02:51;5.03;;;2.25;;
48767;SDS011;34933;40.968;14.538;2022-09-13T00:05:37;2.80;;;1.95;;
48767;SDS011;34933;40.968;14.538;2022-09-13T00:08:22;4.18;;;1.50;;
48767;SDS011;34933;40.968;14.538;2022-09-13T00:11:11;2.80;;;2.05;;
48767;SDS011;34933;40.968;14.538;2022-09-13T00:14:04;3.15;;;1.50;;
48767;SDS011;34933;40.968;14.538;2022-09-13T00:16:48;5.20;;;1.95;;
48767;SDS011;34933;40.968;14.538;2022-09-13T00:19:33;2.38;;;1.52;;
48767;SDS011;34933;40.968;14.538;2022-09-13T00:22:18;3.25;;;1.27;;
48767;SDS011;34933;40.968;14.538;2022-09-13T00:25:04;1.65;;;1.10;;
48767;SDS011;34933;40.968;14.538;2022-09-13T00:27:50;5.05;;;1.10;;
48767;SDS011;34933;40.968;14.538;2022-09-13T00:30:34;1.60;;;1.48;;
48767;SDS011;34933;40.968;14.538;2022-09-13T00:33:19;3.08;;;1.45;;
48767;SDS011;34933;40.968;14.538;2022-09-13T00:36:08;1.38;;;0.85;;
48767;SDS011;34933;40.968;14.538;2022-09-13T00:38:54;5.43;;;2.05;;
48767;SDS011;34933;40.968;14.538;2022-09-13T00:41:39;2.25;;;1.00;;
48767;SDS011;34933;40.968;14.538;2022-09-13T00:50:40;0.85;;;0.82;;
48767;SDS011;34933;40.968;14.538;2022-09-13T00:53:30;2.10;;;0.90;;
48767;SDS011;34933;40.968;14.538;2022-09-13T00:56:18;1.40;;;1.08;;
48767;SDS011;34933;40.968;14.538;2022-09-13T00:59:37;1.02;;;0.60;;
48767;SDS011;34933;40.968;14.538;2022-09-13T01:02:28;2.25;;;0.90;;
48767;SDS011;34933;40.968;14.538;2022-09-13T01:05:14;4.53;;;0.75;;
48767;SDS011;34933;40.968;14.538;2022-09-13T01:07:59;0.63;;;0.57;;
48767;SDS011;34933;40.968;14.538;2022-09-13T01:10:44;0.93;;;0.60;;
48767;SDS011;34933;40.968;14.538;2022-09-13T01:13:32;1.17;;;0.80;;
48767;SDS011;34933;40.968;14.538;2022-09-13T01:16:19;2.85;;;0.70;;
48767;SDS011;34933;40.968;14.538;2022-09-13T01:19:03;1.35;;;1.17;;
48767;SDS011;34933;40.968;14.538;2022-09-13T01:37:03;0.70;;;0.70;;
48767;SDS011;34933;40.968;14.538;2022-09-13T01:40:06;1.30;;;0.43;;
48767;SDS011;34933;40.968;14.538;2022-09-13T01:46:05;0.82;;;0.50;;
48767;SDS011;34933;40.968;14.538;2022-09-13T01:48:59;1.65;;;0.45;;
48767;SDS011;34933;40.968;14.538;2022-09-13T02:07:32;1.30;;;0.70;;
48767;SDS011;34933;40.968;14.538;2022-09-13T02:10:01;1.55;;;0.60;;
48767;SDS011;34933;40.968;14.538;2022-09-13T02:12:52;1.15;;;0.85;;
48767;SDS011;34933;40.968;14.538;2022-09-13T02:15:40;3.28;;;0.70;;
48767;SDS011;34933;40.968;14.538;2022-09-13T02:18:30;2.03;;;0.60;;
48767;SDS011;34933;40.968;14.538;2022-09-13T02:21:25;1.13;;;0.70;;
48767;SDS011;34933;40.968;14.538;2022-09-13T02:24:17;0.30;;;0.30;;
48767;SDS011;34933;40.968;14.538;2022-09-13T02:27:07;0.57;;;0.47;;
48767;SDS011;34933;40.968;14.538;2022-09-13T02:29:55;1.95;;;0.80;;
48767;SDS011;34933;40.968;14.538;2022-09-13T02:35:59;4.43;;;1.20;;
48767;SDS011;34933;40.968;14.538;2022-09-13T02:38:58;3.00;;;1.00;;
48767;SDS011;34933;40.968;14.538;2022-09-13T02:53:35;4.78;;;0.95;;
48767;SDS011;34933;40.968;14.538;2022-09-13T02:59:55;4.32;;;1.60;;
48767;SDS011;34933;40.968;14.538;2022-09-13T03:02:39;2.83;;;1.30;;
48767;SDS011;34933;40.968;14.538;2022-09-13T03:05:27;3.50;;;1.20;;
48767;SDS011;34933;40.968;14.538;2022-09-13T03:08:12;2.25;;;0.75;;
48767;SDS011;34933;40.968;14.538;2022-09-13T03:17:10;2.22;;;1.15;;
48767;SDS011;34933;40.968;14.538;2022-09-13T03:37:26;1.27;;;1.00;;
48767;SDS011;34933;40.968;14.538;2022-09-13T03:40:13;2.08;;;0.60;;
48767;SDS011;34933;40.968;14.538;2022-09-13T03:43:05;0.90;;;0.70;;
48767;SDS011;34933;40.968;14.538;2022-09-13T03:45:58;1.10;;;0.55;;
48767;SDS011;34933;40.968;14.538;2022-09-13T03:48:46;2.72;;;0.65;;
48767;SDS011;34933;40.968;14.538;2022-09-13T03:51:31;2.45;;;0.70;;
48767;SDS011;34933;40.968;14.538;2022-09-13T03:54:21;0.70;;;0.52;;
48767;SDS011;34933;40.968;14.538;2022-09-13T03:57:10;1.58;;;0.70;;
48767;SDS011;34933;40.968;14.538;2022-09-13T03:59:56;0.98;;;0.88;;
48767;SDS011;34933;40.968;14.538;2022-09-13T04:02:40;5.70;;;2.20;;
48767;SDS011;34933;40.968;14.538;2022-09-13T04:05:24;1.40;;;0.80;;
48767;SDS011;34933;40.968;14.538;2022-09-13T04:08:10;3.47;;;1.00;;
48767;SDS011;34933;40.968;14.538;2022-09-13T04:10:54;2.30;;;0.90;;
48767;SDS011;34933;40.968;14.538;2022-09-13T04:13:39;5.05;;;1.02;;
48767;SDS011;34933;40.968;14.538;2022-09-13T04:19:34;4.38;;;1.58;;
48767;SDS011;34933;40.968;14.538;2022-09-13T04:22:19;2.78;;;1.17;;
48767;SDS011;34933;40.968;14.538;2022-09-13T04:25:04;2.08;;;1.27;;
48767;SDS011;34933;40.968;14.538;2022-09-13T04:27:53;5.07;;;1.65;;
48767;SDS011;34933;40.968;14.538;2022-09-13T04:30:38;3.72;;;1.10;;
48767;SDS011;34933;40.968;14.538;2022-09-13T04:33:26;4.13;;;2.30;;
48767;SDS011;34933;40.968;14.538;2022-09-13T04:36:11;4.82;;;1.80;;
48767;SDS011;34933;40.968;14.538;2022-09-13T04:38:55;5.38;;;1.90;;
48767;SDS011;34933;40.968;14.538;2022-09-13T04:41:43;3.78;;;2.08;;
48767;SDS011;34933;40.968;14.538;2022-09-13T04:44:31;2.95;;;1.85;;
48767;SDS011;34933;40.968;14.538;2022-09-13T04:47:16;1.67;;;1.38;;
48767;SDS011;34933;40.968;14.538;2022-09-13T04:50:01;5.10;;;1.27;;
48767;SDS011;34933;40.968;14.538;2022-09-13T04:52:46;5.95;;;1.73;;
48767;SDS011;34933;40.968;14.538;2022-09-13T04:55:30;3.75;;;1.30;;
48767;SDS011;34933;40.968;14.538;2022-09-13T04:58:15;4.70;;;1.30;;
48767;SDS011;34933;40.968;14.538;2022-09-13T05:01:03;3.95;;;1.23;;
48767;SDS011;34933;40.968;14.538;2022-09-13T05:03:49;5.35;;;1.48;;
48767;SDS011;34933;40.968;14.538;2022-09-13T05:06:36;6.72;;;1.73;;
48767;SDS011;34933;40.968;14.538;2022-09-13T05:09:21;3.53;;;1.25;;
48767;SDS011;34933;40.968;14.538;2022-09-13T05:12:06;5.30;;;1.50;;
48767;SDS011;34933;40.968;14.538;2022-09-13T05:14:51;6.07;;;1.55;;
48767;SDS011;34933;40.968;14.538;2022-09-13T05:17:36;4.30;;;3.05;;
48767;SDS011;34933;40.968;14.538;2022-09-13T05:20:20;5.65;;;1.50;;
48767;SDS011;34933;40.968;14.538;2022-09-13T05:23:05;7.63;;;1.80;;
48767;SDS011;34933;40.968;14.538;2022-09-13T05:28:38;12.85;;;2.42;;
48767;SDS011;34933;40.968;14.538;2022-09-13T05:31:24;8.07;;;1.77;;
48767;SDS011;34933;40.968;14.538;2022-09-13T05:34:14;8.40;;;2.55;;
48767;SDS011;34933;40.968;14.538;2022-09-13T05:37:02;5.05;;;2.40;;
48767;SDS011;34933;40.968;14.538;2022-09-13T05:39:47;5.15;;;1.67;;
48767;SDS011;34933;40.968;14.538;2022-09-13T05:42:31;13.25;;;2.45;;
48767;SDS011;34933;40.968;14.538;2022-09-13T05:45:16;6.82;;;2.17;;
48767;SDS011;34933;40.968;14.538;2022-09-13T05:48:01;6.00;;;1.83;;
48767;SDS011;34933;40.968;14.538;2022-09-13T05:50:46;3.03;;;1.55;;
48767;SDS011;34933;40.968;14.538;2022-09-13T05:53:31;8.85;;;2.47;;
48767;SDS011;34933;40.968;14.538;2022-09-13T05:56:17;8.07;;;2.10;;
48767;SDS011;34933;40.968;14.538;2022-09-13T05:59:05;27.17;;;19.30;;
48767;SDS011;34933;40.968;14.538;2022-09-13T06:01:51;8.25;;;4.20;;
48767;SDS011;34933;40.968;14.538;2022-09-13T06:04:36;6.65;;;2.38;;
48767;SDS011;34933;40.968;14.538;2022-09-13T06:07:21;7.15;;;2.22;;
48767;SDS011;34933;40.968;14.538;2022-09-13T06:10:06;8.75;;;2.63;;
48767;SDS011;34933;40.968;14.538;2022-09-13T06:12:53;6.25;;;1.98;;
48767;SDS011;34933;40.968;14.538;2022-09-13T06:15:38;8.57;;;2.55;;
48767;SDS011;34933;40.968;14.538;2022-09-13T06:18:23;7.72;;;3.70;;
48767;SDS011;34933;40.968;14.538;2022-09-13T06:21:09;10.40;;;2.70;;
48767;SDS011;34933;40.968;14.538;2022-09-13T06:24:00;13.45;;;6.10;;
48767;SDS011;34933;40.968;14.538;2022-09-13T06:26:45;11.50;;;5.50;;
48767;SDS011;34933;40.968;14.538;2022-09-13T06:29:30;14.63;;;4.40;;
48767;SDS011;34933;40.968;14.538;2022-09-13T06:32:15;11.50;;;3.65;;
48767;SDS011;34933;40.968;14.538;2022-09-13T06:34:59;14.80;;;3.75;;
48767;SDS011;34933;40.968;14.538;2022-09-13T06:37:44;11.60;;;3.78;;
48767;SDS011;34933;40.968;14.538;2022-09-13T06:40:29;12.00;;;3.85;;
48767;SDS011;34933;40.968;14.538;2022-09-13T06:43:13;11.90;;;3.92;;
48767;SDS011;34933;40.968;14.538;2022-09-13T06:46:03;12.77;;;4.07;;
48767;SDS011;34933;40.968;14.538;2022-09-13T06:48:49;10.68;;;4.13;;
48767;SDS011;34933;40.968;14.538;2022-09-13T06:51:34;9.45;;;4.85;;
48767;SDS011;34933;40.968;14.538;2022-09-13T06:54:19;14.05;;;4.57;;
48767;SDS011;34933;40.968;14.538;2022-09-13T06:57:04;13.23;;;5.22;;
48767;SDS011;34933;40.968;14.538;2022-09-13T06:59:48;15.00;;;5.68;;
48767;SDS011;34933;40.968;14.538;2022-09-13T07:02:33;24.92;;;6.32;;
48767;SDS011;34933;40.968;14.538;2022-09-13T07:05:17;30.40;;;7.70;;
48767;SDS011;34933;40.968;14.538;2022-09-13T07:08:03;19.50;;;6.85;;
48767;SDS011;34933;40.968;14.538;2022-09-13T07:10:47;23.52;;;8.15;;
48767;SDS011;34933;40.968;14.538;2022-09-13T07:13:32;23.92;;;6.55;;
48767;SDS011;34933;40.968;14.538;2022-09-13T07:16:17;27.33;;;6.38;;
48767;SDS011;34933;40.968;14.538;2022-09-13T07:19:04;26.38;;;7.50;;
48767;SDS011;34933;40.968;14.538;2022-09-13T07:21:51;28.55;;;7.32;;
48767;SDS011;34933;40.968;14.538;2022-09-13T07:24:36;27.77;;;7.47;;
48767;SDS011;34933;40.968;14.538;2022-09-13T07:27:20;24.63;;;6.35;;
48767;SDS011;34933;40.968;14.538;2022-09-13T07:30:05;20.25;;;6.45;;
48767;SDS011;34933;40.968;14.538;2022-09-13T07:32:50;23.55;;;7.43;;
48767;SDS011;34933;40.968;14.538;2022-09-13T07:35:35;29.58;;;5.82;;
48767;SDS011;34933;40.968;14.538;2022-09-13T07:38:19;25.38;;;6.80;;
48767;SDS011;34933;40.968;14.538;2022-09-13T07:41:04;21.80;;;6.32;;
48767;SDS011;34933;40.968;14.538;2022-09-13T07:43:51;30.65;;;7.50;;
48767;SDS011;34933;40.968;14.538;2022-09-13T07:46:36;25.60;;;5.82;;
48767;SDS011;34933;40.968;14.538;2022-09-13T07:49:24;23.58;;;5.30;;
48767;SDS011;34933;40.968;14.538;2022-09-13T07:52:09;19.60;;;6.18;;
48767;SDS011;34933;40.968;14.538;2022-09-13T07:54:53;23.13;;;5.45;;
48767;SDS011;34933;40.968;14.538;2022-09-13T07:57:38;18.48;;;4.78;;
48767;SDS011;34933;40.968;14.538;2022-09-13T08:00:23;18.52;;;4.57;;
48767;SDS011;34933;40.968;14.538;2022-09-13T08:03:08;19.10;;;4.00;;
48767;SDS011;34933;40.968;14.538;2022-09-13T08:05:54;19.35;;;6.60;;
48767;SDS011;34933;40.968;14.538;2022-09-13T08:08:39;18.58;;;9.75;;
48767;SDS011;34933;40.968;14.538;2022-09-13T08:14:12;33.35;;;11.40;;
48767;SDS011;34933;40.968;14.538;2022-09-13T08:16:59;29.67;;;11.25;;
48767;SDS011;34933;40.968;14.538;2022-09-13T08:19:44;25.00;;;8.75;;
48767;SDS011;34933;40.968;14.538;2022-09-13T08:22:29;21.63;;;8.05;;
48767;SDS011;34933;40.968;14.538;2022-09-13T08:25:14;23.67;;;7.55;;
48767;SDS011;34933;40.968;14.538;2022-09-13T08:27:59;24.95;;;9.32;;
48767;SDS011;34933;40.968;14.538;2022-09-13T08:30:49;26.58;;;8.95;;
48767;SDS011;34933;40.968;14.538;2022-09-13T08:33:34;27.00;;;11.02;;
48767;SDS011;34933;40.968;14.538;2022-09-13T08:36:20;26.25;;;12.57;;
48767;SDS011;34933;40.968;14.538;2022-09-13T08:39:07;25.92;;;11.60;;
48767;SDS011;34933;40.968;14.538;2022-09-13T08:44:44;19.05;;;8.88;;
48767;SDS011;34933;40.968;14.538;2022-09-13T08:50:26;15.07;;;6.32;;
48767;SDS011;34933;40.968;14.538;2022-09-13T08:53:25;13.68;;;5.75;;
48767;SDS011;34933;40.968;14.538;2022-09-13T08:56:19;13.85;;;6.40;;
48767;SDS011;34933;40.968;14.538;2022-09-13T09:02:45;10.23;;;4.80;;
48767;SDS011;34933;40.968;14.538;2022-09-13T09:05:48;10.35;;;4.13;;
48767;SDS011;34933;40.968;14.538;2022-09-13T09:08:57;11.85;;;5.10;;
48767;SDS011;34933;40.968;14.538;2022-09-13T09:11:49;7.43;;;3.67;;
48767;SDS011;34933;40.968;14.538;2022-09-13T09:14:43;11.80;;;4.15;;
48767;SDS011;34933;40.968;14.538;2022-09-13T09:18:12;10.68;;;5.50;;
48767;SDS011;34933;40.968;14.538;2022-09-13T09:20:56;9.82;;;4.28;;
48767;SDS011;34933;40.968;14.538;2022-09-13T09:23:48;10.63;;;4.07;;
48767;SDS011;34933;40.968;14.538;2022-09-13T09:26:37;6.80;;;3.10;;
48767;SDS011;34933;40.968;14.538;2022-09-13T09:29:23;9.50;;;4.97;;
48767;SDS011;34933;40.968;14.538;2022-09-13T09:35:22;7.13;;;3.50;;
48767;SDS011;34933;40.968;14.538;2022-09-13T09:41:05;7.78;;;3.10;;
48767;SDS011;34933;40.968;14.538;2022-09-13T09:44:05;6.55;;;3.03;;
48767;SDS011;34933;40.968;14.538;2022-09-13T09:47:19;5.25;;;3.00;;
48767;SDS011;34933;40.968;14.538;2022-09-13T09:50:13;9.00;;;3.00;;
48767;SDS011;34933;40.968;14.538;2022-09-13T09:53:20;6.15;;;3.53;;
48767;SDS011;34933;40.968;14.538;2022-09-13T09:59:10;6.78;;;2.60;;
48767;SDS011;34933;40.968;14.538;2022-09-13T10:02:12;7.72;;;3.35;;
48767;SDS011;34933;40.968;14.538;2022-09-13T10:05:03;6.10;;;2.45;;
48767;SDS011;34933;40.968;14.538;2022-09-13T10:07:53;7.97;;;3.00;;
48767;SDS011;34933;40.968;14.538;2022-09-13T10:10:53;5.65;;;3.03;;
48767;SDS011;34933;40.968;14.538;2022-09-13T10:13:55;6.55;;;2.90;;
48767;SDS011;34933;40.968;14.538;2022-09-13T10:16:44;7.68;;;2.63;;
48767;SDS011;34933;40.968;14.538;2022-09-13T10:19:29;4.82;;;2.70;;
48767;SDS011;34933;40.968;14.538;2022-09-13T10:22:15;9.23;;;3.10;;
48767;SDS011;34933;40.968;14.538;2022-09-13T10:28:15;9.98;;;2.58;;
48767;SDS011;34933;40.968;14.538;2022-09-13T10:31:06;9.77;;;3.03;;
48767;SDS011;34933;40.968;14.538;2022-09-13T10:33:58;4.45;;;1.40;;
48767;SDS011;34933;40.968;14.538;2022-09-13T10:36:50;4.57;;;2.30;;
48767;SDS011;34933;40.968;14.538;2022-09-13T10:39:47;11.90;;;2.50;;
48767;SDS011;34933;40.968;14.538;2022-09-13T10:42:55;7.45;;;2.35;;
48767;SDS011;34933;40.968;14.538;2022-09-13T10:45:41;3.03;;;1.90;;
48767;SDS011;34933;40.968;14.538;2022-09-13T10:48:27;4.60;;;2.35;;
48767;SDS011;34933;40.968;14.538;2022-09-13T10:51:19;5.15;;;1.90;;
48767;SDS011;34933;40.968;14.538;2022-09-13T10:57:01;6.03;;;1.63;;
48767;SDS011;34933;40.968;14.538;2022-09-13T11:00:19;5.15;;;1.40;;
48767;SDS011;34933;40.968;14.538;2022-09-13T11:06:19;5.72;;;1.50;;
48767;SDS011;34933;40.968;14.538;2022-09-13T11:09:15;36.75;;;33.08;;
48767;SDS011;34933;40.968;14.538;2022-09-13T11:12:27;8.30;;;4.95;;
48767;SDS011;34933;40.968;14.538;2022-09-13T11:43:49;5.10;;;1.85;;
48767;SDS011;34933;40.968;14.538;2022-09-13T11:46:50;5.32;;;1.50;;
48767;SDS011;34933;40.968;14.538;2022-09-13T11:56:34;10.25;;;1.75;;
48767;SDS011;34933;40.968;14.538;2022-09-13T12:05:19;5.35;;;1.33;;
48767;SDS011;34933;40.968;14.538;2022-09-13T12:08:13;2.03;;;1.02;;
48767;SDS011;34933;40.968;14.538;2022-09-13T12:13:50;5.15;;;1.30;;
48767;SDS011;34933;40.968;14.538;2022-09-13T12:16:49;4.80;;;1.88;;
48767;SDS011;34933;40.968;14.538;2022-09-13T12:19:42;4.20;;;1.42;;
48767;SDS011;34933;40.968;14.538;2022-09-13T12:25:18;2.45;;;1.10;;
48767;SDS011;34933;40.968;14.538;2022-09-13T12:28:12;7.38;;;1.23;;
48767;SDS011;34933;40.968;14.538;2022-09-13T12:31:18;5.10;;;1.67;;
48767;SDS011;34933;40.968;14.538;2022-09-13T12:34:06;6.75;;;1.20;;
48767;SDS011;34933;40.968;14.538;2022-09-13T13:01:40;3.05;;;1.27;;
48767;SDS011;34933;40.968;14.538;2022-09-13T13:04:31;3.58;;;1.30;;
48767;SDS011;34933;40.968;14.538;2022-09-13T13:07:20;2.75;;;0.90;;
48767;SDS011;34933;40.968;14.538;2022-09-13T13:10:06;2.58;;;1.23;;
48767;SDS011;34933;40.968;14.538;2022-09-13T13:13:18;2.92;;;1.25;;
48767;SDS011;34933;40.968;14.538;2022-09-13T13:19:32;3.17;;;1.30;;
48767;SDS011;34933;40.968;14.538;2022-09-13T13:39:47;6.05;;;1.80;;
48767;SDS011;34933;40.968;14.538;2022-09-13T13:43:13;5.97;;;1.30;;
48767;SDS011;34933;40.968;14.538;2022-09-13T13:48:54;52.92;;;6.47;;
48767;SDS011;34933;40.968;14.538;2022-09-13T13:51:40;22.23;;;6.32;;
48767;SDS011;34933;40.968;14.538;2022-09-13T13:54:28;14.57;;;3.42;;
48767;SDS011;34933;40.968;14.538;2022-09-13T14:00:34;4.25;;;1.90;;
48767;SDS011;34933;40.968;14.538;2022-09-13T14:16:35;2.60;;;1.80;;
48767;SDS011;34933;40.968;14.538;2022-09-13T14:19:54;5.43;;;2.05;;
48767;SDS011;34933;40.968;14.538;2022-09-13T14:22:34;4.45;;;1.70;;
48767;SDS011;34933;40.968;14.538;2022-09-13T14:28:05;7.10;;;2.17;;
48767;SDS011;34933;40.968;14.538;2022-09-13T14:30:52;5.90;;;1.65;;
48767;SDS011;34933;40.968;14.538;2022-09-13T14:33:39;3.00;;;1.85;;
48767;SDS011;34933;40.968;14.538;2022-09-13T14:36:23;5.82;;;2.17;;
48767;SDS011;34933;40.968;14.538;2022-09-13T14:39:10;3.72;;;1.90;;
48767;SDS011;34933;40.968;14.538;2022-09-13T14:42:12;7.32;;;2.45;;
48767;SDS011;34933;40.968;14.538;2022-09-13T14:44:58;11.35;;;1.77;;
48767;SDS011;34933;40.968;14.538;2022-09-13T14:47:46;4.85;;;1.85;;
48767;SDS011;34933;40.968;14.538;2022-09-13T14:50:56;6.28;;;2.15;;
48767;SDS011;34933;40.968;14.538;2022-09-13T14:53:42;8.45;;;2.88;;
48767;SDS011;34933;40.968;14.538;2022-09-13T14:56:35;3.92;;;2.15;;
48767;SDS011;34933;40.968;14.538;2022-09-13T14:59:45;3.45;;;1.85;;
48767;SDS011;34933;40.968;14.538;2022-09-13T15:02:37;5.22;;;1.92;;
48767;SDS011;34933;40.968;14.538;2022-09-13T15:05:26;4.05;;;2.05;;
48767;SDS011;34933;40.968;14.538;2022-09-13T15:11:26;7.55;;;2.67;;
48767;SDS011;34933;40.968;14.538;2022-09-13T15:17:13;12.00;;;2.83;;
48767;SDS011;34933;40.968;14.538;2022-09-13T15:20:02;7.35;;;2.40;;
48767;SDS011;34933;40.968;14.538;2022-09-13T15:22:55;8.95;;;2.88;;
48767;SDS011;34933;40.968;14.538;2022-09-13T15:25:40;9.13;;;4.53;;
48767;SDS011;34933;40.968;14.538;2022-09-13T15:31:42;8.80;;;3.42;;
48767;SDS011;34933;40.968;14.538;2022-09-13T15:34:26;6.40;;;3.88;;
48767;SDS011;34933;40.968;14.538;2022-09-13T15:37:12;9.55;;;5.30;;
48767;SDS011;34933;40.968;14.538;2022-09-13T15:42:56;5.32;;;2.90;;
48767;SDS011;34933;40.968;14.538;2022-09-13T15:45:41;8.00;;;4.68;;
48767;SDS011;34933;40.968;14.538;2022-09-13T15:48:27;10.98;;;6.32;;
48767;SDS011;34933;40.968;14.538;2022-09-13T15:51:13;9.90;;;5.00;;
48767;SDS011;34933;40.968;14.538;2022-09-13T15:53:58;11.32;;;6.38;;
48767;SDS011;34933;40.968;14.538;2022-09-13T15:56:44;7.82;;;3.72;;
48767;SDS011;34933;40.968;14.538;2022-09-13T15:59:30;9.70;;;2.92;;
48767;SDS011;34933;40.968;14.538;2022-09-13T16:02:18;12.25;;;3.67;;
48767;SDS011;34933;40.968;14.538;2022-09-13T16:05:08;9.85;;;4.28;;
48767;SDS011;34933;40.968;14.538;2022-09-13T16:07:54;23.08;;;8.23;;
48767;SDS011;34933;40.968;14.538;2022-09-13T16:10:41;11.85;;;5.47;;
48767;SDS011;34933;40.968;14.538;2022-09-13T16:13:26;8.90;;;3.95;;
48767;SDS011;34933;40.968;14.538;2022-09-13T16:16:13;5.85;;;3.95;;
48767;SDS011;34933;40.968;14.538;2022-09-13T16:18:58;9.80;;;3.75;;
48767;SDS011;34933;40.968;14.538;2022-09-13T16:21:43;27.08;;;6.72;;
48767;SDS011;34933;40.968;14.538;2022-09-13T16:24:28;35.40;;;9.40;;
48767;SDS011;34933;40.968;14.538;2022-09-13T16:27:13;44.78;;;8.50;;
48767;SDS011;34933;40.968;14.538;2022-09-13T16:29:59;34.75;;;7.13;;
48767;SDS011;34933;40.968;14.538;2022-09-13T16:32:44;33.10;;;5.45;;
48767;SDS011;34933;40.968;14.538;2022-09-13T16:35:29;37.20;;;6.38;;
48767;SDS011;34933;40.968;14.538;2022-09-13T16:38:15;49.42;;;6.47;;
48767;SDS011;34933;40.968;14.538;2022-09-13T16:41:03;37.88;;;7.65;;
48767;SDS011;34933;40.968;14.538;2022-09-13T16:43:48;27.63;;;7.22;;
48767;SDS011;34933;40.968;14.538;2022-09-13T16:46:33;22.38;;;7.00;;
48767;SDS011;34933;40.968;14.538;2022-09-13T16:49:17;16.90;;;6.65;;
48767;SDS011;34933;40.968;14.538;2022-09-13T16:52:02;23.73;;;6.90;;
48767;SDS011;34933;40.968;14.538;2022-09-13T16:54:46;21.08;;;6.68;;
48767;SDS011;34933;40.968;14.538;2022-09-13T16:57:32;23.10;;;9.93;;
48767;SDS011;34933;40.968;14.538;2022-09-13T17:00:17;50.72;;;25.83;;
48767;SDS011;34933;40.968;14.538;2022-09-13T17:03:02;28.88;;;8.00;;
48767;SDS011;34933;40.968;14.538;2022-09-13T17:06:00;14.00;;;5.40;;
48767;SDS011;34933;40.968;14.538;2022-09-13T17:08:57;23.30;;;10.70;;
48767;SDS011;34933;40.968;14.538;2022-09-13T17:11:44;24.35;;;11.07;;
48767;SDS011;34933;40.968;14.538;2022-09-13T17:14:28;59.50;;;20.70;;
48767;SDS011;34933;40.968;14.538;2022-09-13T17:17:14;121.38;;;31.77;;
48767;SDS011;34933;40.968;14.538;2022-09-13T17:19:59;63.65;;;23.70;;
48767;SDS011;34933;40.968;14.538;2022-09-13T17:22:45;49.33;;;21.00;;
48767;SDS011;34933;40.968;14.538;2022-09-13T17:25:30;43.72;;;17.40;;
48767;SDS011;34933;40.968;14.538;2022-09-13T17:28:15;34.22;;;14.82;;
48767;SDS011;34933;40.968;14.538;2022-09-13T17:30:59;35.80;;;15.38;;
48767;SDS011;34933;40.968;14.538;2022-09-13T17:33:44;47.03;;;16.88;;
48767;SDS011;34933;40.968;14.538;2022-09-13T17:36:31;76.38;;;23.38;;
48767;SDS011;34933;40.968;14.538;2022-09-13T17:39:15;32.58;;;13.60;;
48767;SDS011;34933;40.968;14.538;2022-09-13T17:42:01;25.73;;;13.10;;
48767;SDS011;34933;40.968;14.538;2022-09-13T17:44:45;34.42;;;11.90;;
48767;SDS011;34933;40.968;14.538;2022-09-13T17:47:30;26.65;;;11.55;;
48767;SDS011;34933;40.968;14.538;2022-09-13T17:50:15;28.35;;;11.25;;
48767;SDS011;34933;40.968;14.538;2022-09-13T17:52:59;25.90;;;12.25;;
48767;SDS011;34933;40.968;14.538;2022-09-13T17:55:45;15.82;;;7.72;;
48767;SDS011;34933;40.968;14.538;2022-09-13T17:58:30;14.98;;;7.15;;
48767;SDS011;34933;40.968;14.538;2022-09-13T18:01:15;16.35;;;6.80;;
48767;SDS011;34933;40.968;14.538;2022-09-13T18:04:00;18.35;;;7.30;;
48767;SDS011;34933;40.968;14.538;2022-09-13T18:06:45;15.27;;;6.80;;
48767;SDS011;34933;40.968;14.538;2022-09-13T18:09:30;14.32;;;6.03;;
48767;SDS011;34933;40.968;14.538;2022-09-13T18:12:15;10.68;;;5.30;;
48767;SDS011;34933;40.968;14.538;2022-09-13T18:14:59;9.73;;;5.13;;
48767;SDS011;34933;40.968;14.538;2022-09-13T18:17:45;11.88;;;6.00;;
48767;SDS011;34933;40.968;14.538;2022-09-13T18:20:30;13.65;;;5.85;;
48767;SDS011;34933;40.968;14.538;2022-09-13T18:23:14;12.82;;;4.90;;
48767;SDS011;34933;40.968;14.538;2022-09-13T18:26:21;16.83;;;5.55;;
48767;SDS011;34933;40.968;14.538;2022-09-13T18:29:06;11.25;;;5.18;;
48767;SDS011;34933;40.968;14.538;2022-09-13T18:31:54;9.68;;;5.00;;
48767;SDS011;34933;40.968;14.538;2022-09-13T18:34:38;11.45;;;5.68;;
48767;SDS011;34933;40.968;14.538;2022-09-13T18:37:24;9.85;;;4.45;;
48767;SDS011;34933;40.968;14.538;2022-09-13T18:40:09;10.73;;;4.53;;
48767;SDS011;34933;40.968;14.538;2022-09-13T18:42:56;14.63;;;5.07;;
48767;SDS011;34933;40.968;14.538;2022-09-13T18:45:41;10.88;;;5.13;;
48767;SDS011;34933;40.968;14.538;2022-09-13T18:48:30;15.68;;;5.50;;
48767;SDS011;34933;40.968;14.538;2022-09-13T18:51:16;13.35;;;5.40;;
48767;SDS011;34933;40.968;14.538;2022-09-13T18:54:03;12.40;;;4.90;;
48767;SDS011;34933;40.968;14.538;2022-09-13T18:56:48;13.63;;;5.55;;
48767;SDS011;34933;40.968;14.538;2022-09-13T18:59:33;16.50;;;5.20;;
48767;SDS011;34933;40.968;14.538;2022-09-13T19:02:17;8.30;;;4.05;;
48767;SDS011;34933;40.968;14.538;2022-09-13T19:05:03;10.77;;;4.28;;
48767;SDS011;34933;40.968;14.538;2022-09-13T19:07:49;17.95;;;6.93;;
48767;SDS011;34933;40.968;14.538;2022-09-13T19:10:34;14.40;;;6.65;;
48767;SDS011;34933;40.968;14.538;2022-09-13T19:13:19;9.82;;;4.82;;
48767;SDS011;34933;40.968;14.538;2022-09-13T19:16:07;9.20;;;4.20;;
48767;SDS011;34933;40.968;14.538;2022-09-13T19:18:53;10.50;;;4.32;;
48767;SDS011;34933;40.968;14.538;2022-09-13T19:21:39;6.35;;;4.10;;
48767;SDS011;34933;40.968;14.538;2022-09-13T19:24:24;9.05;;;3.38;;
48767;SDS011;34933;40.968;14.538;2022-09-13T19:27:09;15.43;;;4.32;;
48767;SDS011;34933;40.968;14.538;2022-09-13T19:29:53;8.30;;;3.65;;
48767;SDS011;34933;40.968;14.538;2022-09-13T19:32:38;8.50;;;3.67;;
48767;SDS011;34933;40.968;14.538;2022-09-13T19:35:22;8.75;;;3.60;;
48767;SDS011;34933;40.968;14.538;2022-09-13T19:38:07;10.30;;;3.22;;
48767;SDS011;34933;40.968;14.538;2022-09-13T19:40:55;10.63;;;3.03;;
48767;SDS011;34933;40.968;14.538;2022-09-13T19:43:41;6.38;;;3.00;;
48767;SDS011;34933;40.968;14.538;2022-09-13T19:46:30;7.72;;;2.67;;
48767;SDS011;34933;40.968;14.538;2022-09-13T19:49:16;7.97;;;2.80;;
48767;SDS011;34933;40.968;14.538;2022-09-13T19:52:01;5.53;;;2.40;;
48767;SDS011;34933;40.968;14.538;2022-09-13T19:54:45;8.57;;;3.08;;
48767;SDS011;34933;40.968;14.538;2022-09-13T19:57:30;7.93;;;3.13;;
48767;SDS011;34933;40.968;14.538;2022-09-13T20:00:15;6.78;;;2.90;;
48767;SDS011;34933;40.968;14.538;2022-09-13T20:02:59;4.13;;;2.75;;
48767;SDS011;34933;40.968;14.538;2022-09-13T20:05:44;5.72;;;2.00;;
48767;SDS011;34933;40.968;14.538;2022-09-13T20:08:29;5.32;;;2.50;;
48767;SDS011;34933;40.968;14.538;2022-09-13T20:11:14;5.30;;;2.47;;
48767;SDS011;34933;40.968;14.538;2022-09-13T20:13:59;3.83;;;2.17;;
48767;SDS011;34933;40.968;14.538;2022-09-13T20:16:44;3.80;;;2.25;;
48767;SDS011;34933;40.968;14.538;2022-09-13T20:19:29;6.55;;;2.17;;
48767;SDS011;34933;40.968;14.538;2022-09-13T20:22:13;3.78;;;2.17;;
48767;SDS011;34933;40.968;14.538;2022-09-13T20:24:58;4.65;;;2.03;;
48767;SDS011;34933;40.968;14.538;2022-09-13T20:27:42;2.80;;;1.88;;
48767;SDS011;34933;40.968;14.538;2022-09-13T20:30:27;4.82;;;2.40;;
48767;SDS011;34933;40.968;14.538;2022-09-13T20:33:12;4.07;;;2.35;;
48767;SDS011;34933;40.968;14.538;2022-09-13T20:36:01;6.60;;;2.33;;